Time;durP1;ratioP1;P1;durP2;ratioP2;P2;SDS_P1;SDS_P2;PMS_P1;PMS_P2;Temp;Humidity;BMP_temperature;BMP_pressure;BME280_temperature;BME280_humidity;BME280_pressure;Samples;Min_cycle;Max_cycle;Signal;HPM_P1;HPM_P2
2023/04/09 00:02:08;;;;;;;;;2.50;2.25;;;;;22.73;34.26;102264.94;5054496;28;47040;-72
2023/04/09 00:04:34;;;;;;;;;4.00;2.75;;;;;22.73;34.22;102264.94;5055121;28;45387;-72
2023/04/09 00:06:59;;;;;;;;;2.00;2.00;;;;;22.69;34.23;102258.25;5055036;28;45424;-72
2023/04/09 00:09:25;;;;;;;;;2.75;2.00;;;;;22.72;34.09;102264.09;5054822;28;45453;-72
2023/04/09 00:11:50;;;;;;;;;2.00;2.00;;;;;22.73;33.93;102264.94;5036723;28;51180;-71
2023/04/09 00:14:16;;;;;;;;;4.00;2.25;;;;;22.74;34.17;102261.31;5058418;28;45290;-71
2023/04/09 00:16:41;;;;;;;;;1.00;1.00;;;;;22.72;33.96;102257.97;5058220;28;45442;-71
2023/04/09 00:19:06;;;;;;;;;2.00;2.00;;;;;22.73;34.34;102260.47;5058387;28;45385;-72
2023/04/09 00:21:32;;;;;;;;;1.33;1.33;;;;;22.63;33.88;102243.75;5058154;28;46205;-72
2023/04/09 00:23:57;;;;;;;;;3.00;1.75;;;;;22.72;33.93;102255.31;5058307;28;45360;-72
2023/04/09 00:26:22;;;;;;;;;1.67;1.67;;;;;22.71;34.30;102254.50;5058488;28;45734;-72
2023/04/09 00:28:48;;;;;;;;;5.00;3.33;;;;;22.71;34.11;102251.00;5058081;28;45574;-72
2023/04/09 00:31:13;;;;;;;;;3.33;2.00;;;;;22.69;34.45;102256.41;5049390;28;45378;-72
2023/04/09 00:33:38;;;;;;;;;2.67;2.67;;;;;22.68;33.91;102249.44;5058088;28;45301;-71
2023/04/09 00:36:04;;;;;;;;;2.75;2.75;;;;;22.69;34.43;102245.78;5040110;28;45309;-72
2023/04/09 00:38:29;;;;;;;;;4.50;2.00;;;;;22.69;33.79;102251.09;5074838;28;45283;-72
2023/04/09 00:40:55;;;;;;;;;3.00;3.00;;;;;22.68;34.31;102254.75;5078212;28;46627;-72
2023/04/09 00:43:20;;;;;;;;;4.75;2.75;;;;;22.69;33.85;102256.41;5078196;28;45475;-72
2023/04/09 00:45:46;;;;;;;;;2.00;2.00;;;;;22.68;34.25;102252.09;5078013;28;45344;-72
2023/04/09 00:48:12;;;;;;;;;2.33;2.33;;;;;22.68;33.82;102238.84;5078127;28;45363;-72
2023/04/09 00:50:38;;;;;;;;;4.00;4.00;;;;;22.66;34.24;102239.97;5078056;28;46143;-72
2023/04/09 00:53:04;;;;;;;;;4.00;4.00;;;;;22.69;34.14;102237.03;5077894;28;45282;-72
2023/04/09 00:55:30;;;;;;;;;3.25;2.75;;;;;22.68;34.09;102228.22;5059859;28;45249;-72
2023/04/09 00:57:55;;;;;;;;;3.00;3.00;;;;;22.70;33.53;102228.94;5077710;28;45477;-72
2023/04/09 01:00:21;;;;;;;;;3.00;3.00;;;;;22.70;33.86;102226.28;5077468;28;45218;-72
2023/04/09 01:02:47;;;;;;;;;3.00;3.00;;;;;22.65;33.75;102214.41;5077844;28;45420;-72
2023/04/09 01:05:14;;;;;;;;;2.00;2.00;;;;;22.65;33.90;102214.41;5078155;28;45448;-72
2023/04/09 01:08:04;;;;;;;;;4.00;3.00;;;;;22.70;34.10;102220.13;5077753;28;45610;-72
2023/04/09 01:10:45;;;;;;;;;3.00;3.00;;;;;22.59;33.53;102205.25;5077227;28;46083;-72
2023/04/09 01:13:17;;;;;;;;;5.00;3.00;;;;;22.70;33.68;102222.78;5077600;28;45397;-72
2023/04/09 01:15:56;;;;;;;;;3.00;3.00;;;;;22.66;34.13;102211.63;5077194;28;45371;-72
2023/04/09 01:18:26;;;;;;;;;3.00;2.50;;;;;22.66;34.14;102208.97;5077523;28;46105;-72
2023/04/09 01:21:22;;;;;;;;;2.00;2.00;;;;;22.70;34.31;102212.19;5077337;28;46197;-72
2023/04/09 01:23:56;;;;;;;;;3.00;3.00;;;;;22.70;33.87;102210.38;5076725;28;45285;-72
2023/04/09 01:26:33;;;;;;;;;2.00;2.00;;;;;22.70;33.89;102210.38;5077640;28;45195;-72
2023/04/09 01:29:01;;;;;;;;;3.25;3.25;;;;;22.70;34.13;102212.19;5077014;28;45472;-72
2023/04/09 01:31:31;;;;;;;;;2.25;2.00;;;;;22.69;34.22;102205.19;5077201;28;46251;-72
2023/04/09 01:33:59;;;;;;;;;2.50;2.50;;;;;22.65;34.22;102207.31;5077210;28;45357;-72
2023/04/09 01:36:26;;;;;;;;;2.75;2.00;;;;;22.65;34.10;102201.16;5077352;28;45333;-72
2023/04/09 01:38:54;;;;;;;;;4.25;3.00;;;;;22.58;34.07;102195.63;5077027;28;45510;-72
2023/04/09 01:41:21;;;;;;;;;2.25;2.25;;;;;22.64;34.40;102205.63;5077112;28;45360;-72
2023/04/09 01:43:49;;;;;;;;;2.00;2.00;;;;;22.65;33.97;102198.50;5076791;28;45171;-72
2023/04/09 01:46:16;;;;;;;;;3.00;3.00;;;;;22.65;33.82;102202.00;5077113;28;45745;-72
2023/04/09 01:48:42;;;;;;;;;3.50;2.50;;;;;22.63;33.52;102196.84;5076985;28;45435;-72
2023/04/09 01:51:08;;;;;;;;;3.00;3.00;;;;;22.59;34.00;102192.81;5077117;28;45453;-72
2023/04/09 01:53:33;;;;;;;;;3.00;2.25;;;;;22.60;34.19;102191.00;5076968;28;45365;-72
2023/04/09 01:56:00;;;;;;;;;3.25;3.25;;;;;22.64;33.96;102192.34;5077302;28;45444;-72
2023/04/09 01:58:26;;;;;;;;;2.25;2.25;;;;;22.63;33.86;102191.53;5076508;28;45530;-72
2023/04/09 02:00:58;;;;;;;;;3.75;3.75;;;;;22.64;33.80;102192.34;5076730;28;46394;-72
2023/04/09 02:03:31;;;;;;;;;2.50;2.50;;;;;22.55;34.13;102180.84;5076872;28;45269;-71
2023/04/09 02:06:04;;;;;;;;;2.50;2.50;;;;;22.52;34.01;102178.50;5076924;28;45373;-71
2023/04/09 02:08:32;;;;;;;;;3.00;2.00;;;;;22.62;33.98;102194.34;5076654;28;45474;-72
2023/04/09 02:11:02;;;;;;;;;3.25;3.25;;;;;22.59;34.22;102190.16;5076290;28;47408;-72
2023/04/09 02:13:30;;;;;;;;;2.00;2.00;;;;;22.62;33.68;102191.69;5076409;28;45374;-72
2023/04/09 02:15:58;;;;;;;;;3.00;3.00;;;;;22.62;33.68;102189.03;5076829;28;45407;-72
2023/04/09 02:18:26;;;;;;;;;2.00;2.00;;;;;22.63;33.97;102190.72;5076615;28;45427;-72
2023/04/09 02:20:52;;;;;;;;;2.75;2.00;;;;;22.59;33.59;102178.72;5076457;28;45353;-72
2023/04/09 02:23:18;;;;;;;;;5.00;3.00;;;;;22.58;33.80;102177.06;5076601;28;45466;-72
2023/04/09 02:25:43;;;;;;;;;4.75;2.25;;;;;22.65;33.79;102177.28;5076635;28;45398;-72
2023/04/09 02:28:09;;;;;;;;;2.75;2.75;;;;;22.65;33.99;102179.94;5076210;28;45333;-72
2023/04/09 02:30:34;;;;;;;;;2.00;2.00;;;;;22.65;33.58;102180.78;5076368;28;46753;-72
2023/04/09 02:32:59;;;;;;;;;3.00;3.00;;;;;22.62;33.61;102170.47;5076290;28;45387;-72
2023/04/09 02:35:25;;;;;;;;;3.00;3.00;;;;;22.65;34.02;102171.97;5075791;28;45437;-72
2023/04/09 02:37:50;;;;;;;;;3.50;3.25;;;;;22.59;34.12;102149.53;5075693;28;45408;-71
2023/04/09 02:40:15;;;;;;;;;2.25;2.25;;;;;22.65;33.58;102154.25;5076181;28;47164;-72
2023/04/09 02:42:40;;;;;;;;;2.75;2.00;;;;;22.65;33.71;102156.06;5075972;28;45334;-72
2023/04/09 02:45:06;;;;;;;;;5.00;4.00;;;;;22.65;33.62;102156.91;5076334;28;45421;-72
2023/04/09 02:47:32;;;;;;;;;4.50;3.25;;;;;22.64;33.27;102155.22;5076378;28;45376;-71
2023/04/09 02:49:57;;;;;;;;;2.25;2.25;;;;;22.55;33.50;102141.06;5075908;28;46118;-72
2023/04/09 02:52:23;;;;;;;;;3.00;3.00;;;;;22.64;33.57;102155.22;5076210;28;45317;-72
2023/04/09 02:54:49;;;;;;;;;3.50;2.25;;;;;22.65;33.93;102164.84;5076248;28;45288;-72
2023/04/09 02:57:14;;;;;;;;;3.00;3.00;;;;;22.63;33.66;102158.88;5075733;28;45323;-72
2023/04/09 02:59:40;;;;;;;;;2.00;2.00;;;;;22.62;34.10;102149.25;5075917;28;46196;-72
2023/04/09 03:02:05;;;;;;;;;2.75;2.00;;;;;22.62;33.72;102149.25;5076053;28;45310;-72
2023/04/09 03:04:30;;;;;;;;;0.00;0.00;;;;;22.62;34.21;102157.19;5076273;28;45289;-72
2023/04/09 03:06:56;;;;;;;;;3.00;2.50;;;;;22.61;34.20;102152.91;5076220;28;45499;-71
2023/04/09 03:09:21;;;;;;;;;3.00;3.00;;;;;22.60;33.74;102145.91;5075578;28;46136;-72
2023/04/09 03:11:47;;;;;;;;;5.75;3.00;;;;;22.60;33.68;102151.22;5075627;28;45249;-71
2023/04/09 03:14:12;;;;;;;;;2.25;2.00;;;;;22.60;33.57;102143.25;5076128;28;45287;-72
2023/04/09 03:16:37;;;;;;;;;4.50;3.50;;;;;22.60;33.71;102137.94;5075968;28;45436;-72
2023/04/09 03:19:02;;;;;;;;;4.00;2.00;;;;;22.60;34.18;102140.59;5075452;28;50762;-72
2023/04/09 03:21:28;;;;;;;;;2.25;2.25;;;;;22.58;34.22;102138.13;5075780;28;45448;-71
2023/04/09 03:23:53;;;;;;;;;3.00;2.75;;;;;22.53;33.98;102124.47;5076054;28;45344;-72
2023/04/09 03:26:18;;;;;;;;;2.50;2.50;;;;;22.61;34.12;102129.03;5075465;28;45446;-72
2023/04/09 03:28:44;;;;;;;;;5.00;5.00;;;;;22.61;33.90;102129.03;5075711;28;46152;-72
2023/04/09 03:31:09;;;;;;;;;3.00;3.00;;;;;22.60;34.19;102125.53;5075647;28;45557;-71
2023/04/09 03:33:35;;;;;;;;;4.00;3.00;;;;;22.58;33.70;102124.00;5075698;28;45513;-72
2023/04/09 03:36:00;;;;;;;;;5.00;4.00;;;;;22.59;34.25;102123.84;5075792;28;45427;-72
2023/04/09 03:38:25;;;;;;;;;3.00;3.00;;;;;22.48;33.80;102106.34;5075291;28;45395;-72
2023/04/09 03:40:50;;;;;;;;;2.50;2.50;;;;;22.57;34.13;102111.72;5075228;28;45440;-72
2023/04/09 03:43:16;;;;;;;;;4.50;3.00;;;;;22.57;33.97;102115.22;5075559;28;45482;-72
2023/04/09 03:45:41;;;;;;;;;4.00;3.00;;;;;22.57;33.82;102117.03;5075525;28;45393;-71
2023/04/09 03:48:06;;;;;;;;;4.50;2.75;;;;;22.57;33.28;102117.03;5077341;28;47113;-71
2023/04/09 03:50:37;;;;;;;;;4.00;4.00;;;;;22.55;33.82;102109.25;5079070;28;45448;-71
2023/04/09 03:53:02;;;;;;;;;2.75;2.75;;;;;22.58;33.35;102108.09;5079104;28;45712;-71
2023/04/09 03:55:28;;;;;;;;;2.00;2.00;;;;;22.58;33.44;102124.84;5078564;28;45514;-71
2023/04/09 03:57:53;;;;;;;;;4.00;2.25;;;;;22.55;33.75;102117.19;5077938;28;46426;-72
2023/04/09 04:00:19;;;;;;;;;4.00;3.00;;;;;22.56;33.35;102113.53;5078912;28;45400;-72
2023/04/09 04:02:44;;;;;;;;;4.50;4.00;;;;;22.59;33.88;102115.91;5079229;28;45435;-71
2023/04/09 04:05:10;;;;;;;;;1.75;1.75;;;;;22.60;33.81;102119.38;5079021;28;45432;-72
2023/04/09 04:07:35;;;;;;;;;3.50;3.50;;;;;22.56;33.74;102113.53;5078575;28;47173;-71
2023/04/09 04:10:03;;;;;;;;;2.00;2.00;;;;;22.59;33.82;102113.25;5078074;28;45429;-72
2023/04/09 04:12:30;;;;;;;;;3.25;3.25;;;;;22.54;33.88;102104.91;5078947;28;45340;-72
2023/04/09 04:14:55;;;;;;;;;3.25;2.25;;;;;22.58;33.72;102116.91;5078662;28;45297;-72
2023/04/09 04:17:20;;;;;;;;;3.00;3.00;;;;;22.58;33.95;102124.00;5078308;28;47515;-72
2023/04/09 04:19:46;;;;;;;;;3.50;3.00;;;;;22.58;33.95;102118.72;5078602;28;45358;-72
2023/04/09 04:22:11;;;;;;;;;2.00;1.75;;;;;22.58;33.39;102124.00;5078564;28;45330;-72
2023/04/09 04:24:36;;;;;;;;;3.75;3.75;;;;;22.53;33.25;102116.53;5078266;28;45512;-72
2023/04/09 04:27:03;;;;;;;;;2.00;2.00;;;;;22.58;33.38;102121.38;5078473;28;45328;-72
2023/04/09 04:29:28;;;;;;;;;3.50;3.50;;;;;22.58;33.45;102116.91;5078445;28;45472;-71
2023/04/09 04:31:53;;;;;;;;;6.75;4.75;;;;;22.57;34.04;102119.69;5078227;28;45538;-72
2023/04/09 04:34:19;;;;;;;;;3.25;3.25;;;;;22.57;33.52;102119.69;5078499;28;45284;-72
2023/04/09 04:36:44;;;;;;;;;2.25;2.25;;;;;22.58;33.53;102121.38;5059673;28;47011;-71
2023/04/09 04:39:09;;;;;;;;;2.25;2.25;;;;;22.57;33.36;102112.56;5076509;27;45479;-72
2023/04/09 04:41:35;;;;;;;;;3.00;3.00;;;;;22.55;34.02;102119.84;5078542;28;45422;-72
2023/04/09 04:44:00;;;;;;;;;3.00;3.00;;;;;22.56;33.70;102118.84;5078233;28;45649;-72
2023/04/09 04:46:25;;;;;;;;;3.25;3.25;;;;;22.56;34.08;102123.34;5078095;28;45918;-72
2023/04/09 04:48:51;;;;;;;;;3.75;3.50;;;;;22.55;33.94;102119.00;5078052;28;45383;-71
2023/04/09 04:51:16;;;;;;;;;3.50;2.75;;;;;22.49;33.63;102115.13;5077990;28;48848;-72
2023/04/09 04:53:41;;;;;;;;;4.25;4.25;;;;;22.55;33.50;102121.66;5077704;28;45369;-71
2023/04/09 04:56:12;;;;;;;;;4.25;3.75;;;;;22.55;33.61;102121.66;5077894;28;45979;-71
2023/04/09 04:58:37;;;;;;;;;4.50;4.50;;;;;22.54;33.47;102125.28;5076908;28;45380;-71
2023/04/09 05:01:02;;;;;;;;;3.00;3.00;;;;;22.52;34.14;102126.28;5077726;28;45359;-71
2023/04/09 05:03:28;;;;;;;;;4.50;3.00;;;;;22.52;33.93;102131.59;5077926;28;45533;-72
2023/04/09 05:05:53;;;;;;;;;3.00;3.00;;;;;22.49;33.54;102125.75;5077787;28;45403;-72
2023/04/09 05:08:18;;;;;;;;;3.00;3.00;;;;;22.51;33.36;102140.53;5077301;28;45463;-72
2023/04/09 05:10:45;;;;;;;;;3.50;3.50;;;;;22.52;33.86;102144.03;5077571;28;45464;-72
2023/04/09 05:13:11;;;;;;;;;2.75;2.75;;;;;22.47;33.34;102148.94;5077896;28;45475;-72
2023/04/09 05:15:40;;;;;;;;;2.75;2.75;;;;;22.49;33.40;102150.47;5077546;28;47139;-71
2023/04/09 05:18:06;;;;;;;;;5.50;5.50;;;;;22.51;33.88;102153.78;5077626;28;45430;-71
2023/04/09 05:20:32;;;;;;;;;3.75;3.75;;;;;22.49;33.35;102153.13;5077532;28;45186;-72
2023/04/09 05:22:57;;;;;;;;;2.50;2.50;;;;;22.50;33.72;102149.50;5077260;28;45273;-72
2023/04/09 05:25:22;;;;;;;;;5.00;4.00;;;;;22.51;33.64;102156.44;5077406;28;46858;-71
2023/04/09 05:27:48;;;;;;;;;5.00;4.00;;;;;22.51;33.76;102151.13;5077628;28;45352;-71
2023/04/09 05:30:13;;;;;;;;;3.00;3.00;;;;;22.51;33.26;102151.13;5059417;28;45502;-71
2023/04/09 05:32:39;;;;;;;;;5.50;4.00;;;;;22.53;33.68;102156.31;5077452;28;45365;-72
2023/04/09 05:35:04;;;;;;;;;3.00;3.00;;;;;22.55;33.72;102151.69;5077109;28;47075;-72
2023/04/09 05:37:30;;;;;;;;;4.25;3.00;;;;;22.43;33.38;102136.97;5075362;28;45516;-72
2023/04/09 05:39:55;;;;;;;;;3.00;3.00;;;;;22.53;33.35;102148.34;5077586;28;45828;-72
2023/04/09 05:42:21;;;;;;;;;2.25;2.25;;;;;22.45;33.39;102140.31;5077480;28;45402;-71
2023/04/09 05:44:46;;;;;;;;;3.00;2.25;;;;;22.53;33.46;102145.69;5077157;28;46062;-71
2023/04/09 05:47:12;;;;;;;;;4.00;4.00;;;;;22.52;33.24;102144.84;5077029;28;47699;-71
2023/04/09 05:49:37;;;;;;;;;3.50;3.00;;;;;22.52;33.54;102147.50;5077304;28;45384;-71
2023/04/09 05:52:02;;;;;;;;;3.00;3.00;;;;;22.53;33.33;102161.59;5076935;28;45423;-72
2023/04/09 05:54:28;;;;;;;;;5.25;3.50;;;;;22.52;33.93;102155.47;5076901;28;46013;-71
2023/04/09 05:56:53;;;;;;;;;4.00;4.00;;;;;22.54;33.84;102157.94;5076993;28;45522;-72
2023/04/09 05:59:18;;;;;;;;;3.25;3.25;;;;;22.53;33.75;102164.25;5076998;28;45324;-72
2023/04/09 06:01:44;;;;;;;;;4.25;4.00;;;;;22.48;33.72;102155.94;5077200;28;45416;-71
2023/04/09 06:04:09;;;;;;;;;3.75;2.25;;;;;22.53;33.68;102158.97;5076856;28;46279;-72
2023/04/09 06:06:37;;;;;;;;;2.75;2.75;;;;;22.52;33.77;102160.78;5076619;28;45401;-71
2023/04/09 06:09:03;;;;;;;;;4.00;3.00;;;;;22.52;33.24;102155.47;5076581;28;45464;-72
2023/04/09 06:11:29;;;;;;;;;3.00;2.25;;;;;22.53;33.27;102158.97;5076438;28;45459;-72
2023/04/09 06:13:54;;;;;;;;;3.00;3.00;;;;;22.53;33.60;102158.97;5076482;28;46951;-71
2023/04/09 06:16:19;;;;;;;;;3.00;3.00;;;;;22.54;33.87;102165.06;5076824;28;45308;-71
2023/04/09 06:18:45;;;;;;;;;3.25;3.25;;;;;22.50;33.36;102165.41;5076707;28;45416;-71
2023/04/09 06:21:12;;;;;;;;;4.00;3.75;;;;;22.50;33.67;102164.56;5076178;28;45374;-71
2023/04/09 06:23:38;;;;;;;;;3.50;3.50;;;;;22.54;33.77;102168.56;5076444;28;46238;-71
2023/04/09 06:26:04;;;;;;;;;3.75;3.75;;;;;22.47;33.27;102157.75;5075159;28;46286;-71
2023/04/09 06:28:30;;;;;;;;;3.00;2.50;;;;;22.52;33.66;102165.22;5076641;28;45281;-71
2023/04/09 06:30:56;;;;;;;;;3.25;3.25;;;;;22.51;33.29;102168.84;5076661;28;45230;-71
2023/04/09 06:33:22;;;;;;;;;3.25;3.00;;;;;22.55;33.13;102178.19;5076203;28;45322;-71
2023/04/09 06:35:48;;;;;;;;;3.75;3.75;;;;;22.52;33.24;102165.22;5076063;28;45845;-71
2023/04/09 06:38:14;;;;;;;;;4.25;3.75;;;;;22.53;33.02;102158.97;5075879;28;45468;-72
2023/04/09 06:40:40;;;;;;;;;5.25;4.25;;;;;22.53;33.55;102158.97;5076577;28;45274;-71
2023/04/09 06:43:06;;;;;;;;;3.75;3.75;;;;;22.54;33.48;102160.59;5076240;28;46042;-71
2023/04/09 06:45:32;;;;;;;;;4.00;3.75;;;;;22.55;33.08;102162.28;5076176;28;45459;-71
2023/04/09 06:47:58;;;;;;;;;4.50;3.00;;;;;22.54;33.56;102160.59;5075801;28;45415;-71
2023/04/09 06:50:23;;;;;;;;;1.50;1.50;;;;;22.58;33.15;102166.47;5076234;28;45395;-71
2023/04/09 06:52:50;;;;;;;;;2.25;2.25;;;;;22.54;33.03;102150.00;5076264;28;46055;-71
2023/04/09 06:55:15;;;;;;;;;2.50;2.50;;;;;22.58;33.10;102161.16;5076164;28;45356;-71
2023/04/09 06:57:40;;;;;;;;;3.75;3.75;;;;;22.58;33.20;102154.03;5076106;28;45739;-71
2023/04/09 07:00:07;;;;;;;;;4.00;3.25;;;;;22.60;33.43;102157.38;5076202;28;45570;-71
2023/04/09 07:02:32;;;;;;;;;5.00;5.00;;;;;22.61;33.07;102158.19;5057417;28;46301;-71
2023/04/09 07:04:58;;;;;;;;;1.75;1.00;;;;;22.61;33.66;102158.19;5075957;28;45608;-71
2023/04/09 07:07:23;;;;;;;;;2.50;2.50;;;;;22.60;33.14;102152.06;5076175;28;45507;-71
2023/04/09 07:09:49;;;;;;;;;5.25;3.25;;;;;22.55;33.37;102146.38;5075953;28;45351;-71
2023/04/09 07:12:27;;;;;;;;;3.00;3.00;;;;;22.62;33.16;102151.88;5075803;28;46864;-71
2023/04/09 07:14:57;;;;;;;;;4.00;3.00;;;;;22.60;33.12;102146.75;5075819;28;45453;-71
2023/04/09 07:17:22;;;;;;;;;4.00;4.00;;;;;22.63;33.54;102149.09;5075520;28;45289;-72
2023/04/09 07:19:48;;;;;;;;;2.25;2.25;;;;;22.63;33.39;102151.75;5075949;28;45443;-71
2023/04/09 07:22:13;;;;;;;;;4.00;4.00;;;;;22.65;33.41;102148.94;5076289;28;46181;-71
2023/04/09 07:24:38;;;;;;;;;4.50;3.75;;;;;22.67;33.05;102151.44;5079376;28;45447;-71
2023/04/09 07:27:04;;;;;;;;;3.00;2.25;;;;;22.67;32.91;102156.72;5079442;28;45411;-71
2023/04/09 07:29:29;;;;;;;;;3.75;3.75;;;;;22.66;33.39;102150.63;5079385;28;45407;-71
2023/04/09 07:31:55;;;;;;;;;2.50;2.25;;;;;22.67;32.95;102154.91;5078816;28;46337;-71
2023/04/09 07:34:20;;;;;;;;;3.00;3.00;;;;;22.67;33.50;102156.72;5079133;28;45413;-72
2023/04/09 07:36:45;;;;;;;;;3.50;3.50;;;;;22.59;33.08;102139.75;5079306;28;45489;-71
2023/04/09 07:39:11;;;;;;;;;3.00;3.00;;;;;22.67;32.93;102149.63;5078885;28;48340;-71
2023/04/09 07:41:36;;;;;;;;;3.75;3.75;;;;;22.68;33.55;102153.09;5078872;28;58676;-71
2023/04/09 07:44:02;;;;;;;;;3.75;2.25;;;;;22.69;33.34;102152.13;5079172;28;45347;-71
2023/04/09 07:46:28;;;;;;;;;5.25;4.00;;;;;22.70;33.29;102151.16;5078850;28;45300;-70
2023/04/09 07:48:53;;;;;;;;;3.75;3.00;;;;;22.66;33.10;102144.47;5078732;28;45403;-71
2023/04/09 07:51:19;;;;;;;;;4.25;4.00;;;;;22.69;33.26;102149.47;5078938;28;46105;-71
2023/04/09 07:53:44;;;;;;;;;4.50;4.50;;;;;22.66;33.39;102140.00;5079003;28;45412;-71
2023/04/09 07:56:10;;;;;;;;;4.50;3.75;;;;;22.71;33.63;102150.19;5078890;28;45406;-71
2023/04/09 07:58:36;;;;;;;;;5.25;3.00;;;;;22.68;33.57;102145.16;5079054;28;45210;-71
2023/04/09 08:01:02;;;;;;;;;3.75;3.75;;;;;22.71;33.16;102147.53;5078319;28;46281;-71
2023/04/09 08:03:27;;;;;;;;;3.75;3.75;;;;;22.70;33.06;102144.03;5078834;28;45233;-71
2023/04/09 08:05:53;;;;;;;;;2.25;2.00;;;;;22.71;33.47;102147.53;5078991;28;45281;-70
2023/04/09 08:08:18;;;;;;;;;4.00;3.50;;;;;22.72;32.93;102146.53;5078652;28;45372;-71
2023/04/09 08:10:44;;;;;;;;;5.00;3.00;;;;;22.73;33.05;102150.84;5078408;28;47089;-72
2023/04/09 08:13:10;;;;;;;;;4.00;3.00;;;;;22.72;32.96;102151.84;5078715;28;45380;-71
2023/04/09 08:15:35;;;;;;;;;3.75;3.75;;;;;22.74;33.10;102153.34;5078575;28;45437;-72
2023/04/09 08:18:02;;;;;;;;;3.75;3.00;;;;;22.76;32.96;102155.88;5078516;28;45502;-71
2023/04/09 08:20:29;;;;;;;;;3.00;3.00;;;;;22.77;33.63;102156.69;5078464;28;46326;-71
2023/04/09 08:22:54;;;;;;;;;4.00;3.00;;;;;22.78;32.97;102147.75;5078400;28;45287;-71
2023/04/09 08:25:21;;;;;;;;;3.00;3.00;;;;;22.77;33.08;102146.09;5078494;28;45395;-71
2023/04/09 08:27:46;;;;;;;;;3.00;3.00;;;;;22.78;33.19;102147.75;5078687;28;45511;-71
2023/04/09 08:30:12;;;;;;;;;3.75;3.75;;;;;22.72;33.53;102131.44;5077869;28;46149;-71
2023/04/09 08:32:37;;;;;;;;;4.75;4.00;;;;;22.80;33.41;102141.28;5078345;28;45249;-71
2023/04/09 08:35:03;;;;;;;;;3.00;3.00;;;;;22.80;33.11;102143.94;5078462;28;45476;-71
2023/04/09 08:37:28;;;;;;;;;5.00;4.00;;;;;22.81;33.61;102150.09;5078089;28;45561;-71
2023/04/09 08:39:54;;;;;;;;;2.50;2.50;;;;;22.81;33.53;102148.28;5078145;28;46144;-71
2023/04/09 08:42:22;;;;;;;;;5.00;4.00;;;;;22.71;33.54;102128.97;5078310;28;45377;-71
2023/04/09 08:44:49;;;;;;;;;2.00;2.00;;;;;22.79;33.13;102147.59;5077856;28;45487;-71
2023/04/09 08:47:15;;;;;;;;;3.00;3.00;;;;;22.82;33.12;102149.94;5060062;28;45294;-71
2023/04/09 08:49:40;;;;;;;;;2.75;1.75;;;;;22.83;33.51;102153.41;5078006;28;47181;-71
2023/04/09 08:52:06;;;;;;;;;3.00;3.00;;;;;22.83;33.02;102153.41;5078147;28;45231;-71
2023/04/09 08:54:32;;;;;;;;;3.00;3.00;;;;;22.81;33.35;102139.47;5078104;28;45227;-71
2023/04/09 08:56:57;;;;;;;;;1.75;1.75;;;;;22.84;33.07;102144.47;5078020;28;45210;-71
2023/04/09 08:59:23;;;;;;;;;4.25;4.25;;;;;22.84;33.09;102145.31;5077208;28;45998;-71
2023/04/09 09:01:53;;;;;;;;;4.25;4.25;;;;;22.76;33.46;102126.69;5077857;28;45368;-71
2023/04/09 09:04:18;;;;;;;;;3.00;3.00;;;;;22.84;33.23;102136.53;5077891;28;45384;-71
2023/04/09 09:06:44;;;;;;;;;4.50;4.50;;;;;22.84;33.56;102125.91;5077913;28;45391;-71
2023/04/09 09:09:15;;;;;;;;;4.25;4.25;;;;;22.77;33.48;102123.03;5077559;28;46050;-71
2023/04/09 09:11:42;;;;;;;;;4.00;4.00;;;;;22.85;33.05;102132.88;5076738;28;45383;-71
2023/04/09 09:14:10;;;;;;;;;3.00;3.00;;;;;22.86;33.44;102134.53;5077428;28;45435;-71
2023/04/09 09:16:43;;;;;;;;;2.00;2.00;;;;;22.79;33.29;102118.41;5077809;28;45451;-71
2023/04/09 09:19:29;;;;;;;;;4.75;4.25;;;;;22.86;33.09;102131.88;5077498;28;45478;-71
2023/04/09 09:22:00;;;;;;;;;3.75;3.75;;;;;22.88;33.08;102131.72;5077435;28;45527;-71
2023/04/09 09:24:25;;;;;;;;;7.25;3.25;;;;;22.87;33.07;102122.94;5077436;28;45363;-71
2023/04/09 09:26:53;;;;;;;;;3.75;3.75;;;;;22.89;33.20;102130.75;5077561;28;45614;-71
2023/04/09 09:29:18;;;;;;;;;4.00;4.00;;;;;22.89;33.68;102120.13;5076902;28;47088;-69
2023/04/09 09:31:55;;;;;;;;;4.50;3.00;;;;;22.90;33.58;102124.47;5077224;28;45450;-71
2023/04/09 09:34:22;;;;;;;;;3.00;3.00;;;;;22.87;33.24;102112.34;5077380;28;45305;-71
2023/04/09 09:36:48;;;;;;;;;5.50;3.75;;;;;22.89;33.47;102112.16;5077086;28;45426;-71
2023/04/09 09:39:16;;;;;;;;;3.50;3.00;;;;;22.92;33.26;102114.53;5077005;28;45482;-71
2023/04/09 09:41:43;;;;;;;;;4.00;4.00;;;;;22.92;33.58;102119.81;5077342;28;45490;-71
2023/04/09 09:44:10;;;;;;;;;3.50;3.00;;;;;22.93;33.75;102113.50;5076850;28;45306;-71
2023/04/09 09:46:37;;;;;;;;;3.25;3.25;;;;;22.94;33.67;102115.19;5076661;28;45284;-71
2023/04/09 09:49:03;;;;;;;;;4.00;4.00;;;;;22.94;33.50;102113.38;5076887;28;45324;-71
2023/04/09 09:51:31;;;;;;;;;5.75;4.25;;;;;22.96;33.51;102108.75;5077060;28;45497;-71
2023/04/09 09:53:57;;;;;;;;;5.25;4.50;;;;;22.95;33.25;102096.44;5076994;28;45419;-71
2023/04/09 09:56:33;;;;;;;;;2.25;2.25;;;;;22.97;33.65;102104.28;5076635;28;45547;-74
2023/04/09 09:59:04;;;;;;;;;4.75;4.75;;;;;22.98;33.62;102100.59;5076729;28;46106;-71
2023/04/09 10:01:30;;;;;;;;;3.75;3.75;;;;;22.98;33.41;102100.59;5058661;28;45744;-71
2023/04/09 10:03:59;;;;;;;;;3.00;3.00;;;;;22.99;33.65;102098.78;5076963;28;45394;-71
2023/04/09 10:06:26;;;;;;;;;3.00;2.00;;;;;22.97;33.43;102101.63;5077009;28;45242;-71
2023/04/09 10:08:56;;;;;;;;;4.50;4.50;;;;;22.99;33.63;102101.44;5076392;28;46892;-71
2023/04/09 10:11:22;;;;;;;;;4.75;3.75;;;;;23.00;33.26;102100.47;5076324;28;45348;-71
2023/04/09 10:13:51;;;;;;;;;4.25;3.25;;;;;22.99;33.18;102099.63;5076942;28;45399;-71
2023/04/09 10:16:18;;;;;;;;;5.50;4.00;;;;;23.00;33.37;102100.47;5076965;28;45517;-71
2023/04/09 10:18:43;;;;;;;;;3.75;3.75;;;;;22.99;33.30;102099.63;5076262;28;45963;-71
2023/04/09 10:21:23;;;;;;;;;4.25;3.75;;;;;23.00;33.11;102090.69;5076645;28;45455;-71
2023/04/09 10:23:50;;;;;;;;;2.25;2.25;;;;;23.01;33.22;102097.66;5076805;28;45427;-71
2023/04/09 10:26:17;;;;;;;;;3.25;3.00;;;;;23.00;33.53;102096.00;5076286;28;45226;-72
2023/04/09 10:28:43;;;;;;;;;2.00;2.00;;;;;22.96;33.51;102090.16;5076377;28;45397;-72
2023/04/09 10:31:09;;;;;;;;;6.25;4.00;;;;;22.90;33.79;102079.34;5058123;28;45304;-72
2023/04/09 10:33:37;;;;;;;;;2.75;2.75;;;;;23.01;33.70;102100.31;5076648;28;45369;-72
2023/04/09 10:36:08;;;;;;;;;4.25;3.25;;;;;23.01;33.61;102095.00;5076372;28;45419;-71
2023/04/09 10:38:34;;;;;;;;;5.50;4.00;;;;;23.01;33.48;102087.03;5075731;28;46306;-71
2023/04/09 10:41:06;;;;;;;;;2.75;2.75;;;;;23.02;33.74;102085.22;5075871;28;45330;-72
2023/04/09 10:43:35;;;;;;;;;4.75;4.00;;;;;23.01;33.82;102079.06;5076283;28;45229;-72
2023/04/09 10:46:00;;;;;;;;;3.25;3.25;;;;;23.02;33.70;102078.09;5076305;28;45439;-72
2023/04/09 10:48:26;;;;;;;;;3.00;3.00;;;;;23.03;33.55;102070.97;5075933;28;47160;-70
2023/04/09 10:50:51;;;;;;;;;4.75;4.75;;;;;22.98;33.33;102060.81;5076303;28;45383;-71
2023/04/09 10:53:22;;;;;;;;;4.00;2.00;;;;;23.01;33.33;102060.50;5076476;28;45379;-72
2023/04/09 10:55:50;;;;;;;;;3.75;3.00;;;;;22.96;33.70;102044.22;5076003;28;45576;-71
2023/04/09 10:58:15;;;;;;;;;3.00;3.00;;;;;23.03;33.55;102055.03;5074672;28;45383;-70
2023/04/09 11:00:45;;;;;;;;;5.25;4.00;;;;;23.03;33.37;102053.19;5075965;28;45290;-72
2023/04/09 11:03:24;;;;;;;;;4.50;4.00;;;;;23.03;33.21;102047.09;5076252;28;45320;-71
2023/04/09 11:06:01;;;;;;;;;3.00;3.00;;;;;23.04;33.37;102048.72;5075739;28;45323;-72
2023/04/09 11:08:29;;;;;;;;;4.00;4.00;;;;;23.04;33.55;102049.56;5075766;28;47027;-71
2023/04/09 11:10:57;;;;;;;;;3.00;3.00;;;;;23.03;32.98;102052.38;5075317;28;45542;-71
2023/04/09 11:13:23;;;;;;;;;4.00;4.00;;;;;23.06;32.94;102058.19;5075963;28;45345;-71
2023/04/09 11:15:49;;;;;;;;;3.00;3.00;;;;;23.03;33.17;102055.03;5075979;28;45345;-71
2023/04/09 11:18:22;;;;;;;;;3.00;3.00;;;;;23.06;33.02;102052.06;5075686;28;45331;-71
2023/04/09 11:20:48;;;;;;;;;5.25;3.50;;;;;23.06;33.12;102034.31;5075817;28;45336;-71
2023/04/09 11:23:15;;;;;;;;;4.75;3.00;;;;;23.06;33.22;102031.66;5076022;28;45338;-71